Home   Weather   Switzerland   Muttenz   Past weeks
Flag for Switzerland

Past Weather in Muttenz, Basel-Land, Switzerland — Yesterday and Last 2 Weeks

Currently: 73 °F. Sunny. (Weather station: Bale-Mulhouse, Switzerland). See more current weather

Past Weather in Muttenz — Graph

°F

Muttenz Temperature Yesterday

Maximum temperature yesterday: 72 °F (at 10:30 am)
Minimum temperature yesterday: 61 °F (at 12:00 am)
Average temperature yesterday: 64 °F

High & Low Weather Summary for the Past Weeks

 TemperatureHumidityPressure
High86 °F (Jun 18, 5:00 pm)100% (Jun 4, 2:00 am)30.09 "Hg (Jun 4, 2:00 am)
Low45 °F (Jun 12, 6:00 am)35% (Jun 12, 4:30 pm)29.74 "Hg (Jun 9, 4:00 pm)
Average64 °F74%29.95 "Hg
* Reported Jun 3 8:00 pm — Jun 18 8:00 pm, Muttenz. Weather by CustomWeather, © 2024

Note: Actual official high and low records may vary slightly from our data, if they occured in-between our weather recording intervals... More about our weather records

Muttenz Weather History for the Previous 24 Hours

Scroll right to see more
 ConditionsComfort  
Time TempWeatherWind HumidityBarometerVisibility
8:00 pm
Tue, Jun 18
79 °FSunny.5 mph61%29.89 "Hg10 mi
7:30 pm81 °FPassing clouds.9 mph54%29.89 "HgN/A
7:00 pm82 °FSunny.9 mph48%29.89 "Hg10 mi
6:30 pm82 °FPassing clouds.9 mph51%29.89 "HgN/A
6:00 pm84 °FPassing clouds.3 mph51%29.89 "HgN/A
5:30 pm84 °FPassing clouds.6 mph51%29.89 "HgN/A
5:00 pm86 °FSunny.2 mph49%29.89 "Hg10 mi
4:00 pm84 °FPassing clouds.7 mph48%29.92 "HgN/A
2:30 pm82 °FPassing clouds.5 mph51%29.92 "HgN/A
12:30 pm81 °FClear.3 mph58%29.95 "HgN/A
11:30 am77 °FClear.3 mph57%29.95 "HgN/A
10:30 am75 °FPassing clouds.8 mph61%29.95 "HgN/A
9:30 am72 °FPassing clouds.8 mph69%29.95 "HgN/A
9:00 am70 °FPassing clouds.9 mph73%29.95 "HgN/A
8:30 am68 °FPassing clouds.7 mph73%29.98 "HgN/A
7:30 am63 °FSunny.3 mph88%29.98 "Hg10 mi
7:00 am61 °FSunny.3 mph94%29.98 "Hg10 mi
6:30 am59 °FPassing clouds.3 mph94%29.98 "HgN/A
6:00 am57 °FSunny.5 mph100%29.98 "Hg10 mi
5:30 am55 °FClear.3 mph100%29.98 "Hg10 mi
5:00 am55 °FClear.1 mph100%29.98 "Hg10 mi
4:30 am55 °FClear.1 mph94%29.98 "HgN/A
4:00 am55 °FClear.No wind100%29.98 "Hg10 mi
3:30 am59 °FClear.No wind94%29.98 "Hg10 mi
3:00 am57 °FClear.1 mph100%29.98 "Hg10 mi
2:30 am59 °FClear.3 mph94%30.01 "Hg10 mi
2:00 am59 °FClear.7 mph100%30.01 "Hg10 mi
1:30 am57 °FClear.1 mph100%30.01 "Hg10 mi
1:00 am57 °FClear.No wind94%30.01 "Hg10 mi
12:30 am57 °FClear.2 mph100%30.01 "HgN/A
12:00 am59 °FClear.2 mph100%30.01 "Hg10 mi
11:30 pm
Mon, Jun 17
61 °FClear.2 mph94%30.01 "Hg10 mi
11:00 pm63 °FClear.5 mph88%30.01 "Hg10 mi
10:30 pm63 °FClear.5 mph88%30.01 "Hg10 mi
10:00 pm63 °FClear.7 mph88%30.01 "Hg10 mi
9:30 pm63 °FClear.3 mph88%29.98 "Hg10 mi
Weather by CustomWeather, © 2024

See weather overview